Time;durP1;ratioP1;P1;durP2;ratioP2;P2;SDS_P1;SDS_P2;PMS_P1;PMS_P2;Temp;Humidity;BMP_temperature;BMP_pressure;BME280_temperature;BME280_humidity;BME280_pressure;Samples;Min_cycle;Max_cycle;Signal;HPM_P1;HPM_P2
2023/04/29 00:00:09;;;;;;;24.13;10.93;;;;;;;7.33;55.18;100165.34;4213248;28;24982;-63
2023/04/29 00:02:35;;;;;;;26.53;10.60;;;;;;;7.20;55.65;100179.88;4221007;28;23008;-63
2023/04/29 00:05:03;;;;;;;20.20;10.53;;;;;;;7.11;56.36;100178.81;4218228;28;21105;-64
2023/04/29 00:07:35;;;;;;;21.70;10.47;;;;;;;7.20;55.84;100170.94;4209853;28;20238;-66
2023/04/29 00:10:02;;;;;;;19.17;10.67;;;;;;;7.28;55.81;100172.00;4206877;28;20234;-64
2023/04/29 00:12:30;;;;;;;21.13;10.83;;;;;;;7.07;56.25;100166.63;4211874;28;20256;-64
2023/04/29 00:14:57;;;;;;;22.13;10.13;;;;;;;7.13;56.31;100173.31;4209675;28;20233;-63
2023/04/29 00:17:23;;;;;;;22.07;10.63;;;;;;;7.05;56.66;100178.50;4202991;28;20738;-65
2023/04/29 00:19:50;;;;;;;20.73;10.23;;;;;;;7.10;56.30;100176.25;4217389;28;20234;-64
2023/04/29 00:22:17;;;;;;;20.80;10.20;;;;;;;7.06;56.42;100175.69;4209504;28;21715;-66
2023/04/29 00:24:44;;;;;;;21.90;11.03;;;;;;;6.97;57.05;100169.25;4209358;28;26410;-66
2023/04/29 00:27:12;;;;;;;26.03;11.40;;;;;;;6.97;56.88;100165.69;4222996;28;20235;-65
2023/04/29 00:29:38;;;;;;;23.57;10.37;;;;;;;6.90;57.31;100160.00;4219527;28;20601;-63
2023/04/29 00:32:05;;;;;;;22.07;10.67;;;;;;;6.95;57.13;100155.06;4213848;28;20227;-62
2023/04/29 00:34:31;;;;;;;24.27;11.03;;;;;;;6.88;57.08;100156.56;4219059;28;20429;-63
2023/04/29 00:36:58;;;;;;;21.57;11.43;;;;;;;6.89;57.16;100168.16;4225241;28;20336;-63
2023/04/29 00:39:24;;;;;;;20.27;10.43;;;;;;;6.95;57.20;100159.56;4217429;28;22905;-65
2023/04/29 00:41:51;;;;;;;23.87;10.77;;;;;;;6.86;57.35;100157.69;4224185;28;20236;-62
2023/04/29 00:44:18;;;;;;;25.10;11.20;;;;;;;6.92;57.31;100157.16;4217695;28;20308;-63
2023/04/29 00:46:44;;;;;;;25.53;11.60;;;;;;;6.91;57.33;100152.75;4216397;28;20359;-64
2023/04/29 00:49:11;;;;;;;19.90;10.10;;;;;;;6.90;56.99;100151.91;4196700;28;20307;-64
2023/04/29 00:51:39;;;;;;;20.47;10.50;;;;;;;6.92;57.26;100154.47;4222163;28;20310;-63
2023/04/29 00:54:06;;;;;;;21.57;9.90;;;;;;;7.00;56.76;100157.38;4225657;28;21189;-64
2023/04/29 00:56:34;;;;;;;23.07;9.77;;;;;;;7.01;56.79;100152.81;4206389;28;25498;-64
2023/04/29 00:59:02;;;;;;;19.43;9.73;;;;;;;6.99;57.03;100139.50;4218158;28;20495;-65
2023/04/29 01:01:29;;;;;;;20.80;9.50;;;;;;;7.06;56.68;100129.91;4220138;28;20311;-64
2023/04/29 01:03:56;;;;;;;22.40;10.03;;;;;;;7.08;56.36;100138.72;4208680;28;20398;-63
2023/04/29 01:06:40;;;;;;;22.67;10.53;;;;;;;6.89;56.91;100146.66;4216003;28;20601;-67
2023/04/29 01:09:21;;;;;;;20.00;10.37;;;;;;;6.92;56.91;100143.72;4205662;28;20572;-64
2023/04/29 01:12:05;;;;;;;20.20;9.70;;;;;;;6.94;56.61;100139.06;4214486;28;20568;-63
2023/04/29 01:14:33;;;;;;;18.40;9.23;;;;;;;6.96;56.76;100148.69;4213238;28;21500;-64
2023/04/29 01:17:05;;;;;;;22.67;10.13;;;;;;;6.94;56.78;100142.59;4207339;28;20426;-65
2023/04/29 01:19:47;;;;;;;20.13;9.87;;;;;;;6.93;57.03;100137.34;4208609;28;20241;-65
2023/04/29 01:22:16;;;;;;;22.57;9.80;;;;;;;6.91;56.54;100145.53;4201186;28;20241;-64
2023/04/29 01:24:42;;;;;;;24.00;10.30;;;;;;;6.91;57.06;100140.16;4209079;28;22694;-65
2023/04/29 01:27:29;;;;;;;22.20;9.57;;;;;;;6.86;57.39;100144.22;4219037;28;21364;-64
2023/04/29 01:30:01;;;;;;;20.10;9.73;;;;;;;6.87;57.04;100141.41;4218520;28;23018;-64
2023/04/29 01:32:42;;;;;;;20.27;9.97;;;;;;;6.83;57.43;100145.34;4215454;28;21486;-63
2023/04/29 01:35:37;;;;;;;21.73;10.40;;;;;;;6.91;56.89;100137.47;4212130;28;20235;-64
2023/04/29 01:38:33;;;;;;;20.67;9.90;;;;;;;6.86;57.12;100144.22;4221577;28;20293;-63
2023/04/29 01:41:16;;;;;;;22.30;10.00;;;;;;;6.88;57.54;100150.31;4207559;28;20530;-64
2023/04/29 01:43:46;;;;;;;22.27;8.87;;;;;;;6.88;57.21;100143.13;4199795;28;20247;-65
2023/04/29 01:46:15;;;;;;;17.80;9.90;;;;;;;6.78;57.24;100147.56;4209852;28;20300;-63
2023/04/29 01:48:42;;;;;;;25.40;10.03;;;;;;;6.76;57.68;100141.47;4205462;28;20269;-65
2023/04/29 01:51:08;;;;;;;24.93;11.20;;;;;;;6.68;57.59;100141.28;4214623;28;20381;-63
2023/04/29 01:53:35;;;;;;;20.50;10.47;;;;;;;6.78;57.46;100144.88;4206197;28;20402;-64
2023/04/29 01:56:01;;;;;;;24.70;11.80;;;;;;;6.69;57.87;100142.94;4207352;28;20584;-64
2023/04/29 01:58:28;;;;;;;21.70;10.80;;;;;;;6.81;57.26;100136.56;4219109;28;23270;-63
2023/04/29 02:00:54;;;;;;;20.97;10.57;;;;;;;6.73;57.75;100137.19;4205994;28;20241;-65
2023/04/29 02:03:21;;;;;;;23.10;10.37;;;;;;;6.70;58.03;100134.78;4209363;28;20239;-63
2023/04/29 02:05:49;;;;;;;19.80;10.33;;;;;;;6.62;57.89;100140.78;4217507;28;20233;-65
2023/04/29 02:08:18;;;;;;;19.73;9.63;;;;;;;6.70;57.76;100133.91;4217579;28;21271;-67
2023/04/29 02:10:55;;;;;;;17.90;9.57;;;;;;;6.74;57.87;100127.31;4208418;28;21975;-67
2023/04/29 02:13:21;;;;;;;19.83;9.93;;;;;;;6.60;58.57;100134.72;4215101;28;20315;-65
2023/04/29 02:15:48;;;;;;;25.80;10.13;;;;;;;6.58;58.20;100138.47;4209799;28;20253;-63
2023/04/29 02:18:15;;;;;;;18.87;9.50;;;;;;;6.58;57.97;100119.66;4224264;28;20506;-62
2023/04/29 02:20:42;;;;;;;20.27;9.03;;;;;;;6.70;57.82;100129.41;4218883;28;21749;-64
2023/04/29 02:23:08;;;;;;;21.97;9.47;;;;;;;6.66;57.55;100130.63;4221068;28;22066;-63
2023/04/29 02:25:36;;;;;;;17.13;8.43;;;;;;;6.54;57.81;100124.44;4220547;28;20240;-64
2023/04/29 02:28:02;;;;;;;19.97;8.90;;;;;;;6.60;57.88;100120.38;4225334;28;20235;-63
2023/04/29 02:30:29;;;;;;;20.73;9.23;;;;;;;6.64;57.77;100120.00;4221139;28;20248;-64
2023/04/29 02:32:56;;;;;;;19.67;9.13;;;;;;;6.60;57.66;100118.56;4208063;28;20311;-64
2023/04/29 02:35:22;;;;;;;16.03;8.77;;;;;;;6.58;58.18;100119.66;4214884;28;20238;-64
2023/04/29 02:37:49;;;;;;;19.47;9.03;;;;;;;6.63;57.92;100120.97;4216231;28;20606;-64
2023/04/29 02:40:15;;;;;;;17.53;8.47;;;;;;;6.71;57.88;100122.16;4227718;28;20440;-64
2023/04/29 02:42:42;;;;;;;17.87;8.73;;;;;;;6.69;57.50;100122.31;4217372;28;20654;-65
2023/04/29 02:45:09;;;;;;;16.87;8.30;;;;;;;6.58;57.88;100117.84;4202542;28;20927;-64
2023/04/29 02:47:35;;;;;;;17.30;8.50;;;;;;;6.52;58.36;100118.34;4223436;28;20283;-65
2023/04/29 02:50:03;;;;;;;17.57;8.30;;;;;;;6.54;57.92;100115.53;4212606;28;25349;-64
2023/04/29 02:52:30;;;;;;;17.03;8.53;;;;;;;6.53;58.21;100108.44;4216865;28;20228;-64
2023/04/29 02:54:56;;;;;;;16.87;8.47;;;;;;;6.58;58.12;100119.66;4221101;28;20410;-63
2023/04/29 02:57:23;;;;;;;17.40;8.30;;;;;;;6.67;57.23;100116.19;4218695;28;20245;-63
2023/04/29 02:59:50;;;;;;;22.60;8.30;;;;;;;6.56;58.02;100114.41;4210269;28;20243;-63
2023/04/29 03:02:17;;;;;;;21.53;8.80;;;;;;;6.53;58.25;100114.69;4212096;28;20244;-65
2023/04/29 03:04:44;;;;;;;17.93;7.93;;;;;;;6.48;58.30;100107.00;4211420;28;20231;-63
2023/04/29 03:07:11;;;;;;;18.00;8.80;;;;;;;6.57;58.11;100118.81;4210379;28;21884;-63
2023/04/29 03:09:37;;;;;;;21.33;8.00;;;;;;;6.55;58.10;100101.94;4209407;28;20236;-63
2023/04/29 03:12:04;;;;;;;15.63;7.47;;;;;;;6.56;58.16;100105.50;4217189;28;26409;-65
2023/04/29 03:14:30;;;;;;;14.60;7.87;;;;;;;6.58;58.01;100116.97;4199742;28;20307;-65
2023/04/29 03:16:57;;;;;;;18.57;8.10;;;;;;;6.52;58.34;100117.50;4210832;28;21538;-66
2023/04/29 03:19:23;;;;;;;12.93;7.50;;;;;;;6.60;57.69;100105.13;4212617;28;20289;-65
2023/04/29 03:21:50;;;;;;;19.27;8.57;;;;;;;6.51;58.15;100103.19;4216798;28;20339;-63
2023/04/29 03:24:19;;;;;;;15.37;7.30;;;;;;;6.53;57.85;100108.44;4205688;28;20227;-64
2023/04/29 03:26:46;;;;;;;17.90;8.10;;;;;;;6.64;57.43;100103.88;4215884;28;20411;-64
2023/04/29 03:29:12;;;;;;;19.20;8.57;;;;;;;6.53;58.07;100103.94;4209525;28;20249;-64
2023/04/29 03:31:39;;;;;;;18.27;7.60;;;;;;;6.50;58.30;100110.41;4196029;28;20248;-65
2023/04/29 03:34:05;;;;;;;17.03;7.90;;;;;;;6.58;57.79;100106.22;4220327;28;20232;-67
2023/04/29 03:36:32;;;;;;;14.03;7.53;;;;;;;6.64;57.70;100098.47;4217296;28;20345;-63
2023/04/29 03:38:59;;;;;;;14.93;7.33;;;;;;;6.68;57.59;100104.47;4209430;28;20237;-64
2023/04/29 03:41:25;;;;;;;16.63;7.37;;;;;;;6.60;57.71;100104.25;4212133;28;23514;-63
2023/04/29 03:43:53;;;;;;;17.07;8.10;;;;;;;6.59;58.10;100105.22;4223033;28;20271;-63
2023/04/29 03:46:20;;;;;;;17.67;7.23;;;;;;;6.60;57.89;100106.94;4198406;28;20231;-65
2023/04/29 03:48:47;;;;;;;12.87;7.30;;;;;;;6.62;58.24;100115.75;4201588;28;20234;-64
2023/04/29 03:51:13;;;;;;;16.23;7.10;;;;;;;6.67;57.70;100113.50;4214136;28;21126;-66
2023/04/29 03:53:40;;;;;;;20.30;8.13;;;;;;;6.69;57.54;100113.38;4211160;28;20593;-63
2023/04/29 03:56:06;;;;;;;17.00;8.07;;;;;;;6.67;57.43;100105.44;4184029;28;22469;-64
2023/04/29 03:58:33;;;;;;;15.97;7.73;;;;;;;6.77;57.05;100101.00;4213750;28;20228;-65
2023/04/29 04:01:00;;;;;;;13.03;7.57;;;;;;;6.84;57.00;100100.47;4229404;28;23549;-64
2023/04/29 04:03:27;;;;;;;16.57;7.57;;;;;;;6.75;57.31;100110.19;4210959;28;21800;-66
2023/04/29 04:05:53;;;;;;;16.07;7.33;;;;;;;6.73;57.20;100117.53;4214521;28;20231;-65
2023/04/29 04:08:20;;;;;;;16.27;7.73;;;;;;;6.68;57.69;100107.16;4213772;28;20238;-62
2023/04/29 04:10:46;;;;;;;13.93;7.60;;;;;;;6.75;57.62;100097.56;4224001;28;20303;-65
2023/04/29 04:13:13;;;;;;;13.80;7.90;;;;;;;6.85;57.36;100096.78;4214798;28;20393;-64
2023/04/29 04:15:41;;;;;;;15.93;7.47;;;;;;;6.86;57.13;100101.19;4223171;28;20234;-64
2023/04/29 04:18:07;;;;;;;16.63;7.17;;;;;;;6.82;57.01;100097.91;4215052;28;21629;-64
2023/04/29 04:20:37;;;;;;;19.00;7.83;;;;;;;6.89;57.38;100099.09;4212815;28;20254;-65
2023/04/29 04:23:04;;;;;;;18.47;6.87;;;;;;;6.90;57.35;100087.34;4223101;28;20283;-63
2023/04/29 04:25:30;;;;;;;14.73;6.80;;;;;;;7.04;56.40;100096.88;4218330;28;21183;-64
2023/04/29 04:27:57;;;;;;;15.03;7.10;;;;;;;7.22;55.80;100093.59;4202267;28;20302;-64
2023/04/29 04:30:23;;;;;;;12.47;6.37;;;;;;;7.17;56.01;100093.16;4218694;28;20238;-62
2023/04/29 04:32:50;;;;;;;15.67;6.23;;;;;;;7.25;55.36;100094.19;4218609;28;20243;-64
2023/04/29 04:35:17;;;;;;;21.23;7.00;;;;;;;7.16;55.86;100086.91;4219111;28;20798;-64
2023/04/29 04:37:44;;;;;;;13.47;7.10;;;;;;;7.26;55.94;100095.88;4213477;28;20243;-65
2023/04/29 04:40:12;;;;;;;15.10;6.33;;;;;;;7.47;55.22;100092.28;4220514;28;20862;-64
2023/04/29 04:42:39;;;;;;;14.33;7.17;;;;;;;7.49;55.32;100086.75;4221082;28;20397;-65
2023/04/29 04:45:06;;;;;;;12.00;6.70;;;;;;;7.63;55.02;100083.69;4223819;28;20256;-66
2023/04/29 04:47:32;;;;;;;11.93;6.03;;;;;;;7.55;55.20;100087.06;4224838;28;20318;-65
2023/04/29 04:49:59;;;;;;;12.80;6.27;;;;;;;7.60;54.95;100082.09;4229417;28;20227;-64
2023/04/29 04:52:25;;;;;;;16.00;6.50;;;;;;;7.73;54.56;100079.19;4217697;28;21556;-65
2023/04/29 04:54:52;;;;;;;16.87;6.47;;;;;;;7.87;54.78;100080.63;4218735;28;21862;-65
2023/04/29 04:57:19;;;;;;;15.53;6.20;;;;;;;8.00;54.48;100085.78;4222076;28;20347;-64
2023/04/29 04:59:45;;;;;;;14.90;6.43;;;;;;;8.05;53.58;100080.81;4208501;28;22491;-62
2023/04/29 05:02:12;;;;;;;11.77;6.07;;;;;;;8.02;53.56;100075.69;4221584;28;21593;-63
2023/04/29 05:04:38;;;;;;;15.03;6.30;;;;;;;8.03;53.65;100076.56;4224988;28;20256;-65
2023/04/29 05:07:05;;;;;;;11.93;6.23;;;;;;;8.06;53.23;100070.88;4244980;28;20508;-67
2023/04/29 05:09:31;;;;;;;14.10;6.40;;;;;;;8.01;54.02;100079.38;4203807;28;25605;-64
2023/04/29 05:11:58;;;;;;;11.73;6.47;;;;;;;8.21;53.09;100077.53;4218238;28;20243;-67
2023/04/29 05:14:25;;;;;;;15.10;6.03;;;;;;;8.24;52.72;100073.72;4225249;28;20779;-65
2023/04/29 05:16:52;;;;;;;12.53;5.87;;;;;;;8.30;53.24;100083.97;4207740;28;20239;-64
2023/04/29 05:19:19;;;;;;;13.30;5.87;;;;;;;8.32;52.88;100073.84;4214882;28;20284;-64
2023/04/29 05:21:45;;;;;;;9.73;5.87;;;;;;;8.50;52.32;100082.13;4229166;28;20235;-65
2023/04/29 05:24:12;;;;;;;13.07;5.83;;;;;;;8.58;52.08;100073.31;4215784;28;22892;-65
2023/04/29 05:26:38;;;;;;;12.37;5.57;;;;;;;8.70;51.75;100080.25;4220294;28;20590;-67
2023/04/29 05:29:05;;;;;;;17.90;5.80;;;;;;;8.79;52.20;100075.00;4232885;28;20307;-66
2023/04/29 05:31:32;;;;;;;15.87;6.00;;;;;;;8.71;52.23;100083.81;4221503;28;20249;-66
2023/04/29 05:33:58;;;;;;;14.43;5.87;;;;;;;8.99;51.38;100079.34;4220887;28;20409;-66
2023/04/29 05:36:26;;;;;;;16.07;6.43;;;;;;;9.03;51.55;100075.38;4233586;28;20235;-69
2023/04/29 05:38:53;;;;;;;11.17;5.20;;;;;;;9.21;50.78;100082.72;4212605;28;20682;-68
2023/04/29 05:41:20;;;;;;;13.10;5.53;;;;;;;9.09;51.02;100087.44;4224742;28;20449;-65
2023/04/29 05:43:46;;;;;;;18.50;5.97;;;;;;;9.30;50.75;100079.09;4213070;28;20239;-68
2023/04/29 05:46:13;;;;;;;12.23;5.53;;;;;;;9.33;51.11;100075.25;4232471;28;21734;-67
2023/04/29 05:48:40;;;;;;;15.03;5.27;;;;;;;9.55;49.63;100078.59;4216931;28;20250;-69
2023/04/29 05:51:06;;;;;;;14.20;5.50;;;;;;;9.57;50.11;100072.03;4221159;28;21937;-66
2023/04/29 05:53:34;;;;;;;9.40;4.70;;;;;;;9.89;50.31;100075.25;4220718;28;20275;-72
2023/04/29 05:56:05;;;;;;;11.80;5.03;;;;;;;10.03;48.76;100077.44;4208697;28;20349;-67
2023/04/29 05:58:32;;;;;;;18.17;5.50;;;;;;;9.98;48.87;100074.34;4234356;28;20330;-68
2023/04/29 06:00:59;;;;;;;19.20;5.50;;;;;;;10.07;48.82;100086.09;4222173;28;23797;-67
2023/04/29 06:03:26;;;;;;;15.33;5.70;;;;;;;10.28;48.50;100081.25;4230528;28;20469;-69
2023/04/29 06:05:52;;;;;;;10.17;4.80;;;;;;;11.13;46.86;100074.50;4231144;28;21255;-71
2023/04/29 06:08:20;;;;;;;11.63;5.03;;;;;;;11.73;44.88;100073.63;4229875;28;21743;-68
2023/04/29 06:10:46;;;;;;;14.60;4.93;;;;;;;12.49;43.47;100078.22;4235802;28;21840;-74
2023/04/29 06:13:13;;;;;;;12.47;4.97;;;;;;;13.49;41.75;100077.03;4227304;28;23613;-70
2023/04/29 06:15:39;;;;;;;13.80;5.07;;;;;;;13.77;40.38;100076.63;4224031;28;20247;-69
2023/04/29 06:18:06;;;;;;;11.67;4.87;;;;;;;13.93;40.40;100072.94;4222634;28;20250;-69
2023/04/29 06:20:32;;;;;;;13.37;4.90;;;;;;;14.15;39.55;100070.44;4218764;28;20676;-68
2023/04/29 06:23:04;;;;;;;13.43;5.20;;;;;;;14.32;39.58;100077.47;4230859;28;20227;-68
2023/04/29 06:25:30;;;;;;;9.70;4.80;;;;;;;14.96;38.44;100070.84;4235523;28;21710;-68
2023/04/29 06:27:57;;;;;;;9.17;4.90;;;;;;;15.59;37.40;100066.94;4209618;28;20291;-67
2023/04/29 06:30:24;;;;;;;10.97;4.70;;;;;;;15.80;36.63;100060.69;4215473;28;20308;-70
2023/04/29 06:32:50;;;;;;;11.97;5.03;;;;;;;15.56;37.09;100062.69;4221882;28;20325;-71
2023/04/29 06:35:17;;;;;;;10.33;4.30;;;;;;;16.11;36.49;100070.53;4214061;28;23462;-69
2023/04/29 06:37:44;;;;;;;10.47;4.27;;;;;;;17.00;34.73;100068.44;4204920;28;25756;-68
2023/04/29 06:40:10;;;;;;;12.97;4.80;;;;;;;17.10;34.36;100071.69;4235124;28;20239;-68
2023/04/29 06:42:37;;;;;;;11.60;4.57;;;;;;;17.64;33.32;100066.53;4214418;28;21149;-66
2023/04/29 06:45:04;;;;;;;13.47;5.53;;;;;;;17.03;34.24;100065.31;4218652;28;21481;-74
2023/04/29 06:47:31;;;;;;;13.03;5.30;;;;;;;17.33;34.29;100060.47;4227092;28;21597;-68
2023/04/29 06:49:58;;;;;;;15.47;4.37;;;;;;;17.54;33.12;100062.25;4236176;28;22990;-75
2023/04/29 06:52:25;;;;;;;8.93;4.40;;;;;;;17.66;33.32;100072.66;4224813;28;20219;-70
2023/04/29 06:54:51;;;;;;;11.30;4.53;;;;;;;18.14;32.48;100064.41;4223348;28;20237;-69
2023/04/29 06:57:19;;;;;;;14.47;4.67;;;;;;;17.56;33.96;100065.66;4233161;28;20620;-72
2023/04/29 06:59:46;;;;;;;12.00;4.43;;;;;;;17.18;34.82;100059.75;4230722;28;20235;-67
2023/04/29 07:02:12;;;;;;;13.93;4.53;;;;;;;16.98;35.13;100067.81;4226729;28;20374;-68
2023/04/29 07:04:39;;;;;;;13.20;3.90;;;;;;;18.34;32.57;100064.47;4215234;28;20559;-67
2023/04/29 07:07:06;;;;;;;12.47;3.80;;;;;;;18.09;33.10;100063.38;4243208;28;20239;-68
2023/04/29 07:09:33;;;;;;;9.87;3.67;;;;;;;18.68;31.33;100062.63;4232388;28;21158;-68
2023/04/29 07:12:02;;;;;;;10.90;3.87;;;;;;;18.52;31.99;100052.91;4239778;28;20738;-66
2023/04/29 07:14:29;;;;;;;11.23;4.00;;;;;;;17.53;33.30;100054.25;4234332;28;20625;-67
2023/04/29 07:16:55;;;;;;;12.97;4.63;;;;;;;17.98;32.84;100054.69;4205128;28;20813;-66
2023/04/29 07:19:22;;;;;;;13.40;3.77;;;;;;;18.13;32.70;100053.69;4229946;28;20442;-69
2023/04/29 07:21:49;;;;;;;9.93;3.80;;;;;;;17.78;32.28;100048.28;4252275;28;25719;-67
2023/04/29 07:24:15;;;;;;;13.27;4.33;;;;;;;18.39;32.32;100057.53;4245986;28;20623;-69
2023/04/29 07:26:43;;;;;;;9.17;3.97;;;;;;;19.19;30.70;100056.69;4226781;28;21915;-67
2023/04/29 07:29:10;;;;;;;11.23;3.90;;;;;;;18.72;31.42;100045.75;4227206;28;20437;-68
2023/04/29 07:31:37;;;;;;;14.53;4.20;;;;;;;18.41;31.89;100052.69;4225942;28;20688;-67
2023/04/29 07:34:04;;;;;;;10.07;4.20;;;;;;;19.15;30.25;100050.78;4217620;28;20240;-67
2023/04/29 07:36:31;;;;;;;9.50;3.70;;;;;;;19.16;30.46;100064.31;4223556;28;20227;-72
2023/04/29 07:38:58;;;;;;;12.03;4.03;;;;;;;19.26;30.81;100046.59;4250666;28;20979;-70
2023/04/29 07:41:26;;;;;;;8.47;3.80;;;;;;;19.99;29.55;100039.13;4228098;28;20232;-68
2023/04/29 07:43:52;;;;;;;9.30;3.57;;;;;;;18.72;31.45;100043.00;4230298;28;20315;-68
2023/04/29 07:46:19;;;;;;;8.43;3.70;;;;;;;19.08;30.94;100044.47;4230441;28;21913;-70
2023/04/29 07:48:46;;;;;;;15.80;4.07;;;;;;;19.55;30.75;100041.66;4234207;28;21176;-70
2023/04/29 07:51:13;;;;;;;15.57;4.50;;;;;;;18.26;32.95;100040.00;4224613;28;20230;-68
2023/04/29 07:53:40;;;;;;;10.57;5.27;;;;;;;18.16;33.20;100050.53;4219524;28;20255;-67
2023/04/29 07:56:07;;;;;;;11.90;3.77;;;;;;;18.81;31.93;100045.31;4235433;28;20523;-67
2023/04/29 07:58:34;;;;;;;13.80;3.67;;;;;;;18.49;32.91;100049.75;4220942;28;20310;-70
2023/04/29 08:01:10;;;;;;;11.60;3.43;;;;;;;18.44;32.83;100039.41;4254468;28;21707;-70
2023/04/29 08:03:38;;;;;;;7.90;3.30;;;;;;;18.25;32.80;100046.53;4234881;28;21808;-71
2023/04/29 08:06:07;;;;;;;8.53;3.50;;;;;;;18.15;33.61;100048.84;4225136;28;21145;-67
2023/04/29 08:08:34;;;;;;;9.83;3.13;;;;;;;17.93;33.53;100048.97;4240620;28;20255;-69
2023/04/29 08:11:01;;;;;;;10.43;3.77;;;;;;;17.91;33.57;100048.31;4228843;28;20225;-68
2023/04/29 08:13:27;;;;;;;8.23;3.27;;;;;;;17.52;33.53;100042.47;4221977;28;23172;-70
2023/04/29 08:15:54;;;;;;;10.20;3.63;;;;;;;18.04;32.99;100053.88;4241133;28;26045;-67
2023/04/29 08:18:21;;;;;;;14.70;3.43;;;;;;;17.95;32.64;100046.00;4247392;28;20315;-69
2023/04/29 08:20:50;;;;;;;10.10;3.50;;;;;;;17.57;33.24;100053.66;4240464;28;20297;-69
2023/04/29 08:23:17;;;;;;;14.17;3.50;;;;;;;18.05;32.73;100039.13;4218041;28;20257;-67
2023/04/29 08:25:44;;;;;;;13.97;3.33;;;;;;;18.04;33.12;100059.34;4240563;28;20363;-68
2023/04/29 08:28:11;;;;;;;13.00;3.63;;;;;;;17.16;33.65;100043.53;4220697;28;20239;-72
2023/04/29 08:30:40;;;;;;;6.30;3.03;;;;;;;17.22;33.68;100055.56;4224310;28;26334;-66
2023/04/29 08:33:07;;;;;;;12.07;3.00;;;;;;;17.34;33.88;100040.25;4214496;28;20235;-67
2023/04/29 08:35:37;;;;;;;10.57;3.37;;;;;;;16.86;34.52;100040.97;4255486;28;20767;-70
2023/04/29 08:38:05;;;;;;;7.53;3.17;;;;;;;17.07;33.91;100047.47;4244413;28;22827;-67
2023/04/29 08:40:42;;;;;;;11.50;3.47;;;;;;;16.98;34.40;100040.47;4221845;28;20443;-67
2023/04/29 08:43:09;;;;;;;18.20;3.90;;;;;;;17.31;34.14;100045.28;4228007;28;21768;-67
2023/04/29 08:45:36;;;;;;;11.60;3.10;;;;;;;16.97;34.38;100038.78;4225047;28;21466;-67
2023/04/29 08:48:03;;;;;;;12.17;3.57;;;;;;;16.96;33.99;100026.97;4241432;28;20264;-68
2023/04/29 08:50:30;;;;;;;8.83;3.33;;;;;;;16.80;34.60;100039.88;4233564;28;20235;-70
2023/04/29 08:52:57;;;;;;;14.53;3.67;;;;;;;16.62;34.85;100031.31;4232105;28;20326;-71
2023/04/29 08:55:25;;;;;;;10.57;3.23;;;;;;;16.64;34.68;100031.97;4226914;28;20310;-69
2023/04/29 08:57:53;;;;;;;8.17;3.73;;;;;;;16.98;34.42;100029.53;4252033;28;20301;-69
2023/04/29 09:00:21;;;;;;;11.80;3.47;;;;;;;17.39;33.59;100035.03;4256228;28;20257;-71
2023/04/29 09:02:53;;;;;;;10.13;3.30;;;;;;;17.17;33.97;100025.25;4229387;28;22278;-69
2023/04/29 09:05:20;;;;;;;7.30;3.57;;;;;;;16.88;34.48;100027.13;4256235;28;20743;-67
2023/04/29 09:07:47;;;;;;;8.17;3.57;;;;;;;16.85;34.00;100019.31;4257918;28;20287;-72
2023/04/29 09:10:15;;;;;;;6.13;3.10;;;;;;;16.39;35.25;100032.38;4246529;28;20232;-70
2023/04/29 09:12:42;;;;;;;9.67;3.37;;;;;;;16.52;35.09;100039.84;4224055;28;20239;-70
2023/04/29 09:15:09;;;;;;;12.60;3.13;;;;;;;16.62;35.09;100045.81;4256546;28;26190;-74
2023/04/29 09:17:41;;;;;;;9.37;3.07;;;;;;;16.66;35.28;100027.13;4253828;28;21343;-71
2023/04/29 09:20:20;;;;;;;8.37;2.63;;;;;;;16.58;35.61;100024.53;4226124;28;23006;-66
2023/04/29 09:22:51;;;;;;;7.67;2.90;;;;;;;16.56;35.44;100021.19;4241325;28;20330;-69
2023/04/29 09:25:18;;;;;;;8.13;3.37;;;;;;;16.51;35.65;100026.38;4248445;28;20247;-69
2023/04/29 09:27:45;;;;;;;7.50;3.20;;;;;;;16.83;35.46;100041.38;4219911;28;21459;-70
2023/04/29 09:30:12;;;;;;;7.83;3.40;;;;;;;16.61;35.56;100027.75;4218254;28;20247;-71
2023/04/29 09:32:39;;;;;;;10.50;3.33;;;;;;;16.61;35.50;100018.69;4216792;28;20707;-71
2023/04/29 09:35:26;;;;;;;6.90;3.30;;;;;;;16.56;35.77;100029.38;4223873;28;20385;-69
2023/04/29 09:38:07;;;;;;;9.80;2.97;;;;;;;16.67;35.72;100026.09;4251339;28;22823;-63
2023/04/29 09:40:34;;;;;;;10.03;3.27;;;;;;;16.36;37.38;100021.84;4223961;28;21098;-69
2023/04/29 09:43:22;;;;;;;10.60;3.63;;;;;;;16.54;36.26;100017.78;4239968;28;20244;-66
2023/04/29 09:45:49;;;;;;;12.13;3.13;;;;;;;16.31;36.05;100016.94;4233651;28;20284;-68
2023/04/29 09:48:16;;;;;;;10.27;2.97;;;;;;;16.40;36.54;100017.69;4217579;28;20238;-64
2023/04/29 09:50:43;;;;;;;9.20;3.20;;;;;;;16.49;35.72;100012.91;4223312;28;20244;-66
2023/04/29 09:53:10;;;;;;;11.10;3.20;;;;;;;16.29;35.95;100013.59;4234904;28;20514;-68
2023/04/29 09:55:52;;;;;;;12.47;3.30;;;;;;;16.27;36.50;100006.63;4218517;28;23088;-66
2023/04/29 09:58:30;;;;;;;11.40;2.73;;;;;;;16.47;36.10;100012.25;4227117;28;21680;-67
2023/04/29 10:01:00;;;;;;;8.83;3.40;;;;;;;16.55;35.86;100005.81;4251599;28;21806;-66
2023/04/29 10:03:32;;;;;;;6.23;2.93;;;;;;;16.73;36.20;100006.16;4223555;28;20237;-68
2023/04/29 10:06:00;;;;;;;10.20;2.80;;;;;;;16.82;36.02;99997.81;4219527;28;20293;-67
2023/04/29 10:08:31;;;;;;;10.07;3.23;;;;;;;17.13;34.97;99996.59;4236539;28;20240;-67
2023/04/29 10:11:02;;;;;;;10.63;3.00;;;;;;;16.84;35.42;99984.81;4245834;28;20237;-67
2023/04/29 10:13:29;;;;;;;8.07;3.10;;;;;;;16.54;36.65;99991.31;4242436;28;20234;-66
2023/04/29 10:16:07;;;;;;;7.30;3.47;;;;;;;16.85;36.95;99991.97;4223547;28;20302;-63
2023/04/29 10:18:36;;;;;;;9.27;3.37;;;;;;;16.74;36.83;99980.53;4226386;28;22242;-70
2023/04/29 10:21:06;;;;;;;8.73;3.37;;;;;;;16.83;36.53;99983.97;4234428;28;20262;-67
2023/04/29 10:23:33;;;;;;;6.87;3.33;;;;;;;16.70;36.29;99979.25;4231841;28;20248;-66
2023/04/29 10:26:00;;;;;;;9.77;3.13;;;;;;;16.77;36.33;99984.75;4212558;28;22418;-66
2023/04/29 10:28:31;;;;;;;7.77;3.17;;;;;;;17.01;36.82;99977.16;4198087;28;20293;-66
2023/04/29 10:31:03;;;;;;;9.40;3.17;;;;;;;16.82;36.55;99965.88;4237865;28;20591;-65
2023/04/29 10:33:32;;;;;;;14.23;3.37;;;;;;;16.89;37.83;99969.50;4229676;28;20231;-65
2023/04/29 10:36:00;;;;;;;6.23;3.27;;;;;;;17.22;36.92;99966.13;4236844;28;23104;-62
2023/04/29 10:38:40;;;;;;;8.73;3.00;;;;;;;17.58;36.15;99975.97;4225463;28;23870;-66
2023/04/29 10:41:13;;;;;;;9.87;2.90;;;;;;;17.50;35.75;99962.47;4232213;28;20280;-65
2023/04/29 10:43:39;;;;;;;8.57;3.30;;;;;;;17.63;36.35;99971.78;4224058;28;20509;-64
2023/04/29 10:46:15;;;;;;;15.00;3.63;;;;;;;17.47;35.85;99962.88;4224374;28;20236;-67
2023/04/29 10:48:45;;;;;;;9.27;3.03;;;;;;;17.60;35.04;99983.16;4219912;28;20319;-63
2023/04/29 10:51:13;;;;;;;16.20;3.57;;;;;;;17.20;35.81;99959.16;4219365;28;20655;-65
2023/04/29 10:53:59;;;;;;;14.60;3.37;;;;;;;17.34;35.85;99962.81;4229438;28;20239;-64
2023/04/29 10:56:53;;;;;;;12.90;3.30;;;;;;;17.37;35.52;99957.78;4238862;28;20247;-65
2023/04/29 10:59:21;;;;;;;5.00;3.03;;;;;;;17.24;36.32;99961.31;4205028;28;21095;-67
2023/04/29 11:01:52;;;;;;;5.87;3.10;;;;;;;17.03;36.62;99962.22;4232187;28;20669;-64
2023/04/29 11:04:20;;;;;;;8.07;3.07;;;;;;;17.12;36.15;99973.88;4216985;28;20294;-66
2023/04/29 11:06:55;;;;;;;5.40;3.03;;;;;;;17.11;36.75;99969.44;4231872;28;21398;-63
2023/04/29 11:09:30;;;;;;;5.07;3.13;;;;;;;17.00;37.64;99959.91;4238400;28;25434;-67
2023/04/29 11:12:04;;;;;;;7.73;3.10;;;;;;;17.29;36.22;99957.13;4239875;28;20243;-64
2023/04/29 11:14:41;;;;;;;11.50;3.13;;;;;;;17.11;36.64;99955.78;4210567;28;20231;-66
2023/04/29 11:17:11;;;;;;;9.90;4.00;;;;;;;16.75;37.17;99954.06;4237693;28;21111;-66
2023/04/29 11:19:45;;;;;;;6.67;3.33;;;;;;;17.00;37.08;99961.78;4237894;28;21591;-66
2023/04/29 11:22:23;;;;;;;11.10;3.53;;;;;;;17.05;36.80;99946.47;4220049;28;21762;-63
2023/04/29 11:24:55;;;;;;;8.70;3.43;;;;;;;17.13;36.78;99939.16;4228206;28;20598;-62
2023/04/29 11:27:25;;;;;;;4.90;2.93;;;;;;;17.23;37.10;99940.47;4235827;28;20630;-61